createdAt,value
2019-05-29T00:00:54.202Z,1148.40
2019-05-29T00:03:23.476Z,1227.83
2019-05-29T00:05:53.091Z,1218.50
2019-05-29T00:08:22.823Z,1318.17
2019-05-29T00:10:51.871Z,1332.33
2019-05-29T00:13:21.507Z,1299.87
2019-05-29T00:15:50.528Z,1165.57
2019-05-29T00:18:20.130Z,1358.90
2019-05-29T00:20:49.147Z,1241.47
2019-05-29T00:23:18.840Z,1150.00
2019-05-29T00:25:47.986Z,1212.60
2019-05-29T00:28:17.161Z,1267.03
2019-05-29T00:30:46.218Z,1278.50
2019-05-29T00:33:15.263Z,1244.97
2019-05-29T00:35:44.712Z,1055.20
2019-05-29T00:38:14.747Z,1222.63
2019-05-29T00:40:43.803Z,1237.30
2019-05-29T00:43:13.233Z,1303.67
2019-05-29T00:45:42.634Z,1283.10
2019-05-29T00:48:11.717Z,1427.07
2019-05-29T00:50:40.772Z,1450.67
2019-05-29T00:53:10.132Z,1468.37
2019-05-29T00:55:39.450Z,1540.77
2019-05-29T00:58:09.423Z,1571.63
2019-05-29T01:00:38.468Z,1538.83
2019-05-29T01:03:07.584Z,1593.80
2019-05-29T01:05:36.646Z,1572.63
2019-05-29T01:08:05.765Z,1639.87
2019-05-29T01:10:35.535Z,1685.80
2019-05-29T01:13:05.017Z,1661.27
2019-05-29T01:15:34.234Z,1998.00
2019-05-29T01:18:03.271Z,1999.90
2019-05-29T01:20:32.399Z,1999.10
2019-05-29T01:23:01.444Z,1999.90
2019-05-29T01:25:30.483Z,1999.90
2019-05-29T01:27:59.503Z,1999.90
2019-05-29T01:30:28.746Z,1999.90
2019-05-29T01:32:58.614Z,1999.90
2019-05-29T01:35:27.703Z,1999.90
2019-05-29T01:37:57.510Z,1999.90
2019-05-29T01:40:29.236Z,1999.90
2019-05-29T01:42:57.245Z,1999.90
2019-05-29T01:45:26.355Z,1999.90
2019-05-29T01:47:55.445Z,1999.90
2019-05-29T01:50:24.600Z,1999.90
2019-05-29T01:52:54.354Z,1999.90
2019-05-29T01:55:23.840Z,1999.90
2019-05-29T01:57:52.894Z,1999.90
2019-05-29T02:00:24.150Z,1999.90
2019-05-29T02:02:53.468Z,1999.90
2019-05-29T02:05:22.521Z,1999.90
2019-05-29T02:07:51.600Z,1998.80
2019-05-29T02:10:20.710Z,1999.90
2019-05-29T02:12:49.741Z,1999.90
2019-05-29T02:15:27.975Z,1999.90
2019-05-29T02:17:49.620Z,1925.90
2019-05-29T02:20:21.018Z,1999.90
2019-05-29T02:22:50.291Z,1996.97
2019-05-29T02:25:22.359Z,1999.90
2019-05-29T02:27:52.301Z,1989.20
2019-05-29T02:30:23.647Z,1978.33
2019-05-29T02:32:53.003Z,1727.97
2019-05-29T02:35:24.172Z,1871.03
2019-05-29T02:37:52.788Z,1775.80
2019-05-29T02:40:23.637Z,1687.40
2019-05-29T02:42:53.013Z,1719.53
2019-05-29T02:45:23.839Z,1763.70
2019-05-29T02:47:53.377Z,1634.50
2019-05-29T02:50:24.068Z,1661.77
2019-05-29T02:52:53.756Z,1757.73
2019-05-29T02:55:24.499Z,1725.57
2019-05-29T02:57:55.637Z,1798.20
2019-05-29T03:00:27.568Z,1800.03
2019-05-29T03:02:57.016Z,1706.93
2019-05-29T03:05:26.076Z,1673.07
2019-05-29T03:07:55.209Z,1574.50
2019-05-29T03:10:24.765Z,1535.30
2019-05-29T03:12:53.897Z,1585.83
2019-05-29T03:15:25.497Z,1344.77
2019-05-29T03:17:55.552Z,1517.33
2019-05-29T03:20:25.974Z,1398.43
2019-05-29T03:22:55.425Z,1435.50
2019-05-29T03:25:24.457Z,1482.43
2019-05-29T03:27:53.494Z,1592.87
2019-05-29T03:30:22.498Z,1482.57
2019-05-29T03:32:51.572Z,1354.53
2019-05-29T03:35:20.630Z,1472.87
2019-05-29T03:37:49.974Z,1651.13
2019-05-29T03:40:18.976Z,1945.97
2019-05-29T03:42:48.036Z,1999.90
2019-05-29T03:45:17.213Z,1999.90
2019-05-29T03:47:46.962Z,1999.90
2019-05-29T03:50:16.569Z,1736.40
2019-05-29T03:52:46.312Z,1536.10
2019-05-29T03:55:15.324Z,1446.17
2019-05-29T03:57:44.378Z,1510.40
2019-05-29T04:00:13.516Z,1198.67
2019-05-29T04:02:43.255Z,980.37
2019-05-29T04:05:13.138Z,767.67
2019-05-29T04:07:42.308Z,764.73
2019-05-29T04:10:11.541Z,610.43
2019-05-29T04:12:40.678Z,878.60
2019-05-29T04:15:10.205Z,863.87
2019-05-29T04:17:39.314Z,915.20
2019-05-29T04:20:09.141Z,808.17
2019-05-29T04:22:39.693Z,898.17
2019-05-29T04:25:08.838Z,873.33
2019-05-29T04:27:39.732Z,896.97
2019-05-29T04:30:11.021Z,913.47
2019-05-29T04:32:40.044Z,1016.90
2019-05-29T04:35:10.108Z,1004.03
2019-05-29T04:37:39.775Z,1031.97
2019-05-29T04:40:09.300Z,1018.50
2019-05-29T04:42:40.040Z,1026.77
2019-05-29T04:45:09.402Z,1014.33
2019-05-29T04:47:39.556Z,1026.80
2019-05-29T04:50:10.051Z,1010.08
2019-05-29T04:52:40.395Z,996.30
2019-05-29T04:55:10.397Z,1005.17
2019-05-29T04:57:39.531Z,986.55
2019-05-29T05:00:09.044Z,989.80
2019-05-29T05:02:39.255Z,984.75
2019-05-29T05:05:08.642Z,939.20
2019-05-29T05:07:37.682Z,957.08
2019-05-29T05:10:07.734Z,921.55
2019-05-29T05:12:37.853Z,930.27
2019-05-29T05:15:07.091Z,907.23
2019-05-29T05:17:36.164Z,913.12
2019-05-29T05:20:05.961Z,899.90
2019-05-29T05:22:36.371Z,874.23
2019-05-29T05:25:06.117Z,877.28
2019-05-29T05:27:36.442Z,879.97
2019-05-29T05:30:08.873Z,840.62
2019-05-29T05:32:37.245Z,880.38
2019-05-29T05:35:06.779Z,828.00
2019-05-29T05:37:36.965Z,812.23
2019-05-29T05:40:06.345Z,835.37
2019-05-29T05:42:37.141Z,822.63
2019-05-29T05:45:07.274Z,818.73
2019-05-29T05:47:50.320Z,792.87
2019-05-29T05:50:07.058Z,765.70
2019-05-29T05:52:36.061Z,825.68
2019-05-29T05:55:06.212Z,818.58
2019-05-29T05:57:35.579Z,803.37
2019-05-29T06:00:06.290Z,793.50
2019-05-29T06:02:35.933Z,823.55
2019-05-29T06:05:05.321Z,755.48
2019-05-29T06:07:34.343Z,762.62
2019-05-29T06:10:04.592Z,772.60
2019-05-29T06:12:34.434Z,748.55
2019-05-29T06:15:04.630Z,758.12
2019-05-29T06:17:34.427Z,732.80
2019-05-29T06:20:05.426Z,780.55
2019-05-29T06:22:34.875Z,807.05
2019-05-29T06:25:04.975Z,809.13
2019-05-29T06:27:35.161Z,827.17
2019-05-29T06:30:06.107Z,826.92
2019-05-29T06:32:35.386Z,825.65
2019-05-29T06:35:05.141Z,806.60
2019-05-29T06:37:35.490Z,757.25
2019-05-29T06:40:05.486Z,789.42
2019-05-29T06:42:35.646Z,758.38
2019-05-29T06:45:05.800Z,780.63
2019-05-29T06:47:36.482Z,808.68
2019-05-29T06:50:05.752Z,804.95
2019-05-29T06:52:35.349Z,808.85
2019-05-29T06:55:05.131Z,828.92
2019-05-29T06:57:34.175Z,829.12
2019-05-29T07:00:05.237Z,840.83
2019-05-29T07:02:34.321Z,860.80
2019-05-29T07:05:05.700Z,845.23
2019-05-29T07:07:36.049Z,846.37
2019-05-29T07:10:06.212Z,840.77
2019-05-29T07:12:36.304Z,840.30
2019-05-29T07:15:07.053Z,832.58
2019-05-29T07:17:36.327Z,857.17
2019-05-29T07:20:05.858Z,839.32
2019-05-29T07:22:34.951Z,829.23
2019-05-29T07:25:05.255Z,856.65
2019-05-29T07:27:34.388Z,875.88
2019-05-29T07:30:04.678Z,897.72
2019-05-29T07:32:33.819Z,833.05
2019-05-29T07:35:04.261Z,860.35
2019-05-29T07:37:33.933Z,873.08
2019-05-29T07:40:04.047Z,837.10
2019-05-29T07:42:33.102Z,838.18
2019-05-29T07:45:02.139Z,851.10
2019-05-29T07:47:32.483Z,873.35
2019-05-29T07:50:01.619Z,844.35
2019-05-29T07:52:30.660Z,886.43
2019-05-29T07:54:59.686Z,903.35
2019-05-29T07:57:28.748Z,857.75
2019-05-29T07:59:57.860Z,852.60
2019-05-29T08:02:26.921Z,848.55
2019-05-29T08:04:55.927Z,907.38
2019-05-29T08:07:24.999Z,887.97
2019-05-29T08:09:54.035Z,894.58
2019-05-29T08:12:23.071Z,875.13
2019-05-29T08:14:52.119Z,845.75
2019-05-29T08:17:21.157Z,866.38
2019-05-29T08:20:02.734Z,858.38
2019-05-29T08:22:33.943Z,856.25
2019-05-29T08:24:52.493Z,855.85
2019-05-29T08:27:21.588Z,871.27
2019-05-29T08:29:51.149Z,843.05
2019-05-29T08:32:20.254Z,892.50
2019-05-29T08:34:49.287Z,891.85
2019-05-29T08:37:18.322Z,878.88
2019-05-29T08:39:47.528Z,886.35
2019-05-29T08:42:23.205Z,898.55
2019-05-29T08:44:47.542Z,919.55
2019-05-29T08:47:17.597Z,936.88
2019-05-29T08:49:49.519Z,887.05
2019-05-29T08:52:17.277Z,928.75
2019-05-29T08:54:46.286Z,873.00
2019-05-29T08:57:15.357Z,900.98
2019-05-29T08:59:44.453Z,932.45
2019-05-29T09:02:13.551Z,944.75
2019-05-29T09:04:43.050Z,917.55
2019-05-29T09:07:12.105Z,894.52
2019-05-29T09:09:41.146Z,896.52
2019-05-29T09:12:10.248Z,890.47
2019-05-29T09:14:39.379Z,879.08
2019-05-29T09:17:08.619Z,867.88
2019-05-29T09:19:37.653Z,845.12
2019-05-29T09:22:06.695Z,865.47
2019-05-29T09:24:35.742Z,881.80
2019-05-29T09:27:04.850Z,821.35
2019-05-29T09:29:33.879Z,890.02
2019-05-29T09:32:02.949Z,846.65
2019-05-29T09:34:33.063Z,778.33
2019-05-29T09:37:02.128Z,838.85
2019-05-29T09:39:31.130Z,797.42
2019-05-29T09:42:00.158Z,820.75
2019-05-29T09:44:38.465Z,842.85
2019-05-29T09:46:59.882Z,806.25
2019-05-29T09:49:28.891Z,847.27
2019-05-29T09:51:57.994Z,854.37
2019-05-29T09:54:27.082Z,884.33
2019-05-29T09:56:57.825Z,880.57
2019-05-29T09:59:26.960Z,910.02
2019-05-29T10:01:57.070Z,884.70
2019-05-29T10:04:26.668Z,890.80
2019-05-29T10:06:56.078Z,879.57
2019-05-29T10:09:26.357Z,905.57
2019-05-29T10:11:59.353Z,895.57
2019-05-29T10:14:26.049Z,851.25
2019-05-29T10:16:58.234Z,861.17
2019-05-29T10:19:25.783Z,899.95
2019-05-29T10:21:56.101Z,878.20
2019-05-29T10:24:26.591Z,868.20
2019-05-29T10:26:57.109Z,871.03
2019-05-29T10:29:26.487Z,898.58
2019-05-29T10:31:56.112Z,902.92
2019-05-29T10:34:25.155Z,870.23
2019-05-29T10:36:54.870Z,879.48
2019-05-29T10:39:23.965Z,870.83
2019-05-29T10:41:53.094Z,895.35
2019-05-29T10:44:22.157Z,864.40
2019-05-29T10:46:52.418Z,800.45
2019-05-29T10:49:21.939Z,791.27
2019-05-29T10:52:06.295Z,876.17
2019-05-29T10:54:21.683Z,840.67
2019-05-29T10:56:50.956Z,819.90
2019-05-29T10:59:20.099Z,852.15
2019-05-29T11:01:49.284Z,861.63
2019-05-29T11:04:18.380Z,817.92
2019-05-29T11:06:48.056Z,819.05
2019-05-29T11:09:18.148Z,807.30
2019-05-29T11:11:48.375Z,790.75
2019-05-29T11:14:18.806Z,838.60
2019-05-29T11:16:49.048Z,771.48
2019-05-29T11:19:18.200Z,776.52
2019-05-29T11:25:21.673Z,808.33
2019-05-29T11:27:36.220Z,802.75
2019-05-29T11:30:06.465Z,821.52
2019-05-29T11:32:35.854Z,773.85
2019-05-29T11:35:05.439Z,752.60
2019-05-29T11:37:34.490Z,779.95
2019-05-29T11:40:04.802Z,776.27
2019-05-29T11:42:33.832Z,762.25
2019-05-29T11:45:03.773Z,749.58
2019-05-29T11:47:33.095Z,797.73
2019-05-29T11:50:16.272Z,807.40
2019-05-29T11:52:42.268Z,856.93
2019-05-29T11:55:08.019Z,875.40
2019-05-29T11:57:39.505Z,862.33
2019-05-29T12:00:18.969Z,848.02
2019-05-29T12:02:38.361Z,863.45
2019-05-29T12:05:07.892Z,766.98
2019-05-29T12:07:36.919Z,783.33
2019-05-29T12:10:06.848Z,807.30
2019-05-29T12:12:36.754Z,792.35
2019-05-29T12:15:13.378Z,744.35
2019-05-29T12:17:37.111Z,732.77
2019-05-29T12:20:26.413Z,750.60
2019-05-29T12:22:37.688Z,690.58
2019-05-29T12:25:06.751Z,742.87
2019-05-29T12:27:35.813Z,751.33
2019-05-29T12:30:06.185Z,742.10
2019-05-29T12:32:35.287Z,796.72
2019-05-29T12:35:05.800Z,764.80
2019-05-29T12:37:34.927Z,818.55
2019-05-29T12:40:05.529Z,836.92
2019-05-29T12:42:34.546Z,850.07
2019-05-29T12:45:04.426Z,825.85
2019-05-29T12:47:33.576Z,875.83
2019-05-29T12:50:05.120Z,854.33
2019-05-29T12:52:34.158Z,878.12
2019-05-29T12:55:04.248Z,913.20
2019-05-29T12:57:33.341Z,897.98
2019-05-29T13:00:05.741Z,918.92
2019-05-29T13:02:34.914Z,968.92
2019-05-29T13:05:12.792Z,924.20
2019-05-29T13:07:36.059Z,909.15
2019-05-29T13:10:05.944Z,895.90
2019-05-29T13:12:34.962Z,913.08
2019-05-29T13:15:05.864Z,908.62
2019-05-29T13:17:35.024Z,901.48
2019-05-29T13:20:19.299Z,884.70
2019-05-29T13:22:37.198Z,900.80
2019-05-29T13:25:06.893Z,884.70
2019-05-29T13:27:36.521Z,867.37
2019-05-29T13:30:08.339Z,901.98
2019-05-29T13:32:38.237Z,862.80
2019-05-29T13:35:08.301Z,917.77
2019-05-29T13:37:37.755Z,842.53
2019-05-29T13:40:08.517Z,844.35
2019-05-29T13:42:38.163Z,869.65
2019-05-29T13:45:17.074Z,876.40
2019-05-29T13:47:41.701Z,903.15
2019-05-29T13:50:12.586Z,881.87
2019-05-29T13:52:42.365Z,900.73
2019-05-29T13:55:11.849Z,871.97
2019-05-29T13:57:41.262Z,863.25
2019-05-29T14:00:33.747Z,896.70
2019-05-29T14:02:44.406Z,883.05
2019-05-29T14:05:15.115Z,888.98
2019-05-29T14:07:44.653Z,867.62
2019-05-29T14:10:15.226Z,863.57
2019-05-29T14:12:44.315Z,877.15
2019-05-29T14:15:14.238Z,872.63
2019-05-29T14:17:43.282Z,930.23
2019-05-29T14:20:13.020Z,918.07
2019-05-29T14:22:42.157Z,929.83
2019-05-29T14:25:11.816Z,900.15
2019-05-29T14:27:40.951Z,925.00
2019-05-29T14:30:11.027Z,922.90
2019-05-29T14:32:40.279Z,927.85
2019-05-29T14:35:11.111Z,884.13
2019-05-29T14:37:40.219Z,904.52
2019-05-29T14:40:09.895Z,925.65
2019-05-29T14:42:39.774Z,854.72
2019-05-29T14:45:10.400Z,868.02
2019-05-29T14:47:39.749Z,839.85
2019-05-29T14:50:10.897Z,935.67
2019-05-29T14:52:39.822Z,895.35
2019-05-29T14:55:14.132Z,883.13
2019-05-29T14:57:39.805Z,888.08
2019-05-29T15:00:21.073Z,852.35
2019-05-29T15:02:41.444Z,871.57
2019-05-29T15:05:12.124Z,869.60
2019-05-29T15:07:42.648Z,889.70
2019-05-29T15:10:24.090Z,880.45
2019-05-29T15:12:42.905Z,909.37
2019-05-29T15:15:14.333Z,886.73
2019-05-29T15:17:43.741Z,898.70
2019-05-29T15:20:16.164Z,912.03
2019-05-29T15:22:43.783Z,885.77
2019-05-29T15:25:21.048Z,880.35
2019-05-29T15:27:45.252Z,918.25
2019-05-29T15:30:22.030Z,872.72
2019-05-29T15:32:46.365Z,911.25
2019-05-29T15:35:18.382Z,902.73
2019-05-29T15:37:46.158Z,867.47
2019-05-29T15:40:15.336Z,897.87
2019-05-29T15:42:44.455Z,905.15
2019-05-29T15:45:14.358Z,895.95
2019-05-29T15:47:43.540Z,874.53
2019-05-29T15:50:13.680Z,859.07
2019-05-29T15:52:43.424Z,852.48
2019-05-29T15:55:29.824Z,858.98
2019-05-29T15:57:44.518Z,842.33
2019-05-29T16:00:13.934Z,842.65
2019-05-29T16:02:43.438Z,775.95
2019-05-29T16:05:15.404Z,801.15
2019-05-29T16:07:44.755Z,830.33
2019-05-29T16:10:16.697Z,861.48
2019-05-29T16:12:45.055Z,847.00
2019-05-29T16:15:17.186Z,856.93
2019-05-29T16:17:46.680Z,841.95
2019-05-29T16:20:16.381Z,907.90
2019-05-29T16:22:45.483Z,868.37
2019-05-29T16:25:15.011Z,858.85
2019-05-29T16:27:44.024Z,910.60
2019-05-29T16:30:15.427Z,905.93
2019-05-29T16:32:44.594Z,929.42
2019-05-29T16:35:14.945Z,897.80
2019-05-29T16:37:44.131Z,908.77
2019-05-29T16:40:15.935Z,923.80
2019-05-29T16:42:45.290Z,888.98
2019-05-29T16:45:16.158Z,872.12
2019-05-29T16:47:45.363Z,902.88
2019-05-29T16:50:15.102Z,889.20
2019-05-29T16:52:44.235Z,934.92
2019-05-29T16:55:14.973Z,890.02
2019-05-29T16:57:43.984Z,949.30
2019-05-29T17:00:13.703Z,945.30
2019-05-29T17:02:43.061Z,913.85
2019-05-29T17:05:13.523Z,942.02
2019-05-29T17:07:42.814Z,937.05
2019-05-29T17:10:12.648Z,955.50
2019-05-29T17:12:45.646Z,980.93
2019-05-29T17:15:16.902Z,933.13
2019-05-29T17:17:46.165Z,940.30
2019-05-29T17:20:17.074Z,931.30
2019-05-29T17:22:46.206Z,906.95
2019-05-29T17:25:16.712Z,958.38
2019-05-29T17:27:46.154Z,959.52
2019-05-29T17:30:18.827Z,944.35
2019-05-29T17:32:48.117Z,904.23
2019-05-29T17:35:18.931Z,915.08
2019-05-29T17:37:47.965Z,875.10
2019-05-29T17:40:17.083Z,859.92
2019-05-29T17:42:46.474Z,886.73
2019-05-29T17:45:19.524Z,883.55
2019-05-29T17:47:46.779Z,903.52
2019-05-29T17:50:19.087Z,861.20
2019-05-29T17:52:46.923Z,873.00
2019-05-29T17:55:19.990Z,889.02
2019-05-29T17:57:48.305Z,875.77
2019-05-29T18:00:20.558Z,925.07
2019-05-29T18:02:52.410Z,931.85
2019-05-29T18:05:21.018Z,870.57
2019-05-29T18:07:50.091Z,888.97
2019-05-29T18:10:20.838Z,893.70
2019-05-29T18:12:50.742Z,938.60
2019-05-29T18:15:21.475Z,927.88
2019-05-29T18:17:50.638Z,955.63
2019-05-29T18:20:19.773Z,894.90
2019-05-29T18:22:48.866Z,912.07
2019-05-29T18:25:18.160Z,897.73
2019-05-29T18:27:47.223Z,914.40
2019-05-29T18:30:18.134Z,931.73
2019-05-29T18:32:47.413Z,920.57
2019-05-29T18:35:16.635Z,912.40
2019-05-29T18:37:46.241Z,886.83
2019-05-29T18:40:15.622Z,919.53
2019-05-29T18:42:45.326Z,874.37
2019-05-29T18:45:21.061Z,895.53
2019-05-29T18:47:46.275Z,934.50
2019-05-29T18:50:15.743Z,899.23
2019-05-29T18:52:45.211Z,919.70
2019-05-29T18:55:14.644Z,924.67
2019-05-29T18:57:44.037Z,884.70
2019-05-29T19:00:14.307Z,903.50
2019-05-29T19:02:43.419Z,908.20
2019-05-29T19:05:13.525Z,922.97
2019-05-29T19:07:42.863Z,947.23
2019-05-29T19:10:12.307Z,915.43
2019-05-29T19:12:41.483Z,897.07
2019-05-29T19:15:10.962Z,924.63
2019-05-29T19:17:39.966Z,943.73
2019-05-29T19:20:09.346Z,947.53
2019-05-29T19:22:38.998Z,953.50
2019-05-29T19:25:08.851Z,897.00
2019-05-29T19:27:41.929Z,897.90
2019-05-29T19:30:09.651Z,930.10
2019-05-29T19:32:38.799Z,944.63
2019-05-29T19:35:09.115Z,953.07
2019-05-29T19:37:38.702Z,1042.33
2019-05-29T19:40:09.173Z,1003.80
2019-05-29T19:42:38.322Z,989.93
2019-05-29T19:45:09.527Z,1045.47
2019-05-29T19:47:38.597Z,1012.60
2019-05-29T19:50:11.058Z,1018.67
2019-05-29T19:52:39.133Z,1042.03
2019-05-29T19:55:08.800Z,1051.53
2019-05-29T19:57:52.527Z,1023.83
2019-05-29T20:00:09.780Z,1020.60
2019-05-29T20:02:39.331Z,1012.87
2019-05-29T20:05:08.738Z,969.80
2019-05-29T20:07:37.896Z,973.30
2019-05-29T20:10:08.107Z,1016.40
2019-05-29T20:12:38.098Z,987.87
2019-05-29T20:15:08.611Z,975.47
2019-05-29T20:17:38.477Z,1019.87
2019-05-29T20:20:08.553Z,1003.07
2019-05-29T20:22:38.923Z,992.93
2019-05-29T20:25:08.338Z,1004.73
2019-05-29T20:27:38.537Z,996.70
2019-05-29T20:30:09.250Z,995.20
2019-05-29T20:32:38.917Z,974.83
2019-05-29T20:35:08.173Z,1005.30
2019-05-29T20:37:38.360Z,1005.50
2019-05-29T20:40:08.432Z,976.53
2019-05-29T20:42:38.480Z,994.90
2019-05-29T20:45:09.750Z,963.50
2019-05-29T20:47:39.923Z,987.23
2019-05-29T20:50:09.723Z,958.80
2019-05-29T20:52:39.882Z,955.80
2019-05-29T20:55:10.338Z,911.37
2019-05-29T20:57:40.120Z,923.03
2019-05-29T21:00:09.527Z,939.73
2019-05-29T21:02:38.563Z,931.37
2019-05-29T21:05:07.896Z,902.30
2019-05-29T21:07:36.965Z,947.40
2019-05-29T21:10:06.790Z,948.60
2019-05-29T21:12:35.878Z,965.37
2019-05-29T21:15:06.448Z,969.13
2019-05-29T21:17:35.766Z,985.33
2019-05-29T21:20:05.438Z,972.23
2019-05-29T21:22:34.505Z,970.13
2019-05-29T21:25:08.788Z,946.47
2019-05-29T21:27:35.513Z,951.77
2019-05-29T21:30:06.530Z,951.97
2019-05-29T21:32:37.819Z,935.20
2019-05-29T21:35:07.050Z,947.93
2019-05-29T21:37:36.235Z,946.83
2019-05-29T21:40:06.618Z,938.60
2019-05-29T21:42:36.526Z,965.23
2019-05-29T21:45:06.210Z,951.27
2019-05-29T21:47:37.072Z,966.73
2019-05-29T21:50:06.368Z,952.43
2019-05-29T21:52:35.394Z,954.07
2019-05-29T21:55:05.513Z,936.23
2019-05-29T21:57:34.563Z,943.47
2019-05-29T22:00:05.815Z,935.10
2019-05-29T22:02:36.523Z,976.47
2019-05-29T22:05:07.859Z,966.40
2019-05-29T22:07:36.960Z,957.10
2019-05-29T22:10:06.486Z,957.90
2019-05-29T22:12:36.457Z,952.73
2019-05-29T22:15:06.324Z,960.17
2019-05-29T22:17:35.831Z,966.53
2019-05-29T22:20:06.394Z,968.23
2019-05-29T22:22:35.481Z,1005.37
2019-05-29T22:25:06.606Z,1000.97
2019-05-29T22:27:36.629Z,995.03
2019-05-29T22:30:07.556Z,993.77
2019-05-29T22:32:36.572Z,996.60
2019-05-29T22:35:05.997Z,986.77
2019-05-29T22:37:35.099Z,987.27
2019-05-29T22:40:06.465Z,1005.83
2019-05-29T22:42:35.521Z,970.50
2019-05-29T22:45:05.580Z,981.67
2019-05-29T22:47:34.683Z,999.33
2019-05-29T22:50:05.252Z,1027.00
2019-05-29T22:52:34.311Z,1022.40
2019-05-29T22:55:05.423Z,1000.97
2019-05-29T22:57:34.536Z,1028.97
2019-05-29T23:00:05.443Z,1002.00
2019-05-29T23:02:34.883Z,1003.37
2019-05-29T23:05:05.985Z,1000.50
2019-05-29T23:07:35.085Z,999.53
2019-05-29T23:10:05.664Z,980.23
2019-05-29T23:12:34.770Z,1006.03
2019-05-29T23:15:05.924Z,996.13
2019-05-29T23:17:34.958Z,995.70
2019-05-29T23:20:06.153Z,1029.80
2019-05-29T23:22:35.181Z,1002.43
2019-05-29T23:25:05.104Z,998.50
2019-05-29T23:27:34.843Z,998.30
2019-05-29T23:30:05.870Z,982.60
2019-05-29T23:32:35.567Z,976.80
2019-05-29T23:35:05.260Z,1021.17
2019-05-29T23:37:34.317Z,1017.07
2019-05-29T23:40:05.023Z,998.83
2019-05-29T23:42:34.312Z,1011.00
2019-05-29T23:45:04.903Z,984.43
2019-05-29T23:47:34.052Z,988.87
2019-05-29T23:50:04.479Z,987.47
2019-05-29T23:52:33.614Z,1008.43
2019-05-29T23:55:03.965Z,993.37
2019-05-29T23:57:33.447Z,993.70
